Time;durP1;ratioP1;P1;durP2;ratioP2;P2;SDS_P1;SDS_P2;PMS_P1;PMS_P2;Temp;Humidity;BMP_temperature;BMP_pressure;BME280_temperature;BME280_humidity;BME280_pressure;Samples;Min_cycle;Max_cycle;Signal;HPM_P1;HPM_P2
2022/05/15 00:03:56;;;;;;;;;;;;;;;13.14;48.50977;102224.7;;;;-82
2022/05/15 00:08:58;;;;;;;;;;;;;;;13.11;48.74219;102221.5;;;;-83
2022/05/15 00:13:57;;;;;;;;;;;;;;;13.08;48.89551;102223.3;;;;-83
2022/05/15 00:18:58;;;;;;;;;;;;;;;13.08;48.81738;102222.2;;;;-82
2022/05/15 00:24:01;;;;;;;;;;;;;;;13.04;48.78027;102216.9;;;;-81
2022/05/15 00:26:06;;;;;;;12.5;3.5;;;;;;;;;;;;;-82
2022/05/15 00:28:56;;;;;;;;;;;;;;;13.02;48.83301;102211.2;;;;-83
2022/05/15 00:34:00;;;;;;;;;;;;;;;13.01;48.86621;102204.1;;;;-82
2022/05/15 00:38:58;;;;;;;;;;;;;;;12.98;49.05273;102204;;;;-83
2022/05/15 00:43:58;;;;;;;;;;;;;;;12.97;49.05273;102205.9;;;;-82
2022/05/15 00:48:57;;;;;;;;;;;;;;;12.94;49.43066;102206;;;;-82
2022/05/15 00:53:59;;;;;;;;;;;;;;;12.9;49.24707;102203.5;;;;-83
2022/05/15 00:56:08;;;;;;;11.3;3.2;;;;;;;;;;;;;-81
2022/05/15 00:59:00;;;;;;;;;;;;;;;12.89;49.13477;102205.8;;;;-82
2022/05/15 01:03:58;;;;;;;;;;;;;;;12.86;49.32129;102205.7;;;;-85
2022/05/15 01:08:56;;;;;;;;;;;;;;;12.84;49.18359;102199.1;;;;-82
2022/05/15 01:13:57;;;;;;;;;;;;;;;12.78;49.21094;102200.6;;;;-82
2022/05/15 01:18:57;;;;;;;;;;;;;;;12.75;49.15039;102202.8;;;;-82
2022/05/15 01:23:57;;;;;;;;;;;;;;;12.71;49.89844;102201.7;;;;-84
2022/05/15 01:26:09;;;;;;;8.5;2.9;;;;;;;;;;;;;-83
2022/05/15 01:28:57;;;;;;;;;;;;;;;12.72;50.18066;102202.6;;;;-82
2022/05/15 01:34:01;;;;;;;;;;;;;;;12.69;50.14355;102199;;;;-82
2022/05/15 01:38:59;;;;;;;;;;;;;;;12.67;49.80469;102197.9;;;;-83
2022/05/15 01:44:08;;;;;;;;;;;;;;;12.64;50.00391;102194;;;;-82
2022/05/15 01:48:59;;;;;;;;;;;;;;;12.63;50.41602;102193.6;;;;-83
2022/05/15 01:53:57;;;;;;;;;;;;;;;12.6;50.57031;102190.7;;;;-81
2022/05/15 01:56:11;;;;;;;10.7;2.5;;;;;;;;;;;;;-83
2022/05/15 01:58:58;;;;;;;;;;;;;;;12.58;50.94922;102190.7;;;;-81
2022/05/15 02:03:57;;;;;;;;;;;;;;;12.55;50.7207;102192;;;;-82
2022/05/15 02:08:58;;;;;;;;;;;;;;;12.54;50.58496;102195.5;;;;-83
2022/05/15 02:13:56;;;;;;;;;;;;;;;12.51;50.58203;102186.2;;;;-82
2022/05/15 02:18:56;;;;;;;;;;;;;;;12.46;50.52051;102191;;;;-82
2022/05/15 02:23:57;;;;;;;;;;;;;;;12.44;50.31738;102187;;;;-81
2022/05/15 02:26:14;;;;;;;13.6;2.9;;;;;;;;;;;;;-83
2022/05/15 02:28:58;;;;;;;;;;;;;;;12.42;50.33594;102180.1;;;;-82
2022/05/15 02:33:58;;;;;;;;;;;;;;;12.38;50.62207;102180.5;;;;-82
2022/05/15 02:38:57;;;;;;;;;;;;;;;12.34;50.31641;102177.7;;;;-83
2022/05/15 02:43:56;;;;;;;;;;;;;;;12.29;50.43359;102177.8;;;;-81
2022/05/15 02:53:57;;;;;;;;;;;;;;;12.22;50.42676;102181.1;;;;-84
2022/05/15 02:56:18;;;;;;;10.3;2.7;;;;;;;;;;;;;-84
2022/05/15 02:58:57;;;;;;;;;;;;;;;12.17;50.43164;102179.7;;;;-81
2022/05/15 03:03:59;;;;;;;;;;;;;;;12.13;50.65039;102176.3;;;;-82
2022/05/15 03:08:57;;;;;;;;;;;;;;;12.09;50.55762;102174.6;;;;-81
2022/05/15 03:13:58;;;;;;;;;;;;;;;12.06;50.53027;102170.4;;;;-83
2022/05/15 03:18:56;;;;;;;;;;;;;;;11.99;50.60059;102173.1;;;;-83
2022/05/15 03:24:04;;;;;;;;;;;;;;;11.98;50.58887;102171.1;;;;-81
2022/05/15 03:26:15;;;;;;;12;2.8;;;;;;;;;;;;;-82
2022/05/15 03:28:57;;;;;;;;;;;;;;;11.93;50.7832;102170.5;;;;-82
2022/05/15 03:33:57;;;;;;;;;;;;;;;11.89;50.64355;102167.4;;;;-81
2022/05/15 03:38:56;;;;;;;;;;;;;;;11.86;50.75293;102159.4;;;;-83
2022/05/15 03:43:58;;;;;;;;;;;;;;;11.83;50.59277;102153.4;;;;-81
2022/05/15 03:48:58;;;;;;;;;;;;;;;11.79;50.74414;102152.4;;;;-81
2022/05/15 03:53:57;;;;;;;;;;;;;;;11.79;50.73438;102148.2;;;;-82
2022/05/15 03:56:17;;;;;;;8.7;2.4;;;;;;;;;;;;;-81
2022/05/15 03:58:59;;;;;;;;;;;;;;;11.74;50.95215;102152.9;;;;-84
2022/05/15 04:03:57;;;;;;;;;;;;;;;11.71;50.8252;102149.1;;;;-82
2022/05/15 04:08:58;;;;;;;;;;;;;;;11.7;50.94727;102141.6;;;;-82
2022/05/15 04:13:57;;;;;;;;;;;;;;;11.69;51.25977;102141.6;;;;-82
2022/05/15 04:18:57;;;;;;;;;;;;;;;11.7;51.10449;102147.2;;;;-82
2022/05/15 04:23:56;;;;;;;;;;;;;;;11.69;51.2373;102148.6;;;;-82
2022/05/15 04:26:18;;;;;;;9.2;2.6;;;;;;;;;;;;;-82
2022/05/15 04:28:56;;;;;;;;;;;;;;;11.72;51.33105;102141.2;;;;-82
2022/05/15 04:33:57;;;;;;;;;;;;;;;11.73;51.80078;102149.7;;;;-82
2022/05/15 04:38:58;;;;;;;;;;;;;;;11.75;51.97266;102148;;;;-84
2022/05/15 04:43:59;;;;;;;;;;;;;;;11.8;51.74219;102155.8;;;;-84
2022/05/15 04:48:57;;;;;;;;;;;;;;;11.85;51.75977;102153.7;;;;-83
2022/05/15 04:53:56;;;;;;;;;;;;;;;11.89;51.84375;102159;;;;-83
2022/05/15 04:56:19;;;;;;;9.2;2.5;;;;;;;;;;;;;-83
2022/05/15 04:58:56;;;;;;;;;;;;;;;11.94;52.70996;102162;;;;-80
2022/05/15 05:03:57;;;;;;;;;;;;;;;12;53.43457;102168;;;;-83
2022/05/15 05:08:57;;;;;;;;;;;;;;;12.07;52.64746;102167.6;;;;-83
2022/05/15 05:13:58;;;;;;;;;;;;;;;12.14;54.20215;102170.4;;;;-83
2022/05/15 05:19:10;;;;;;;;;;;;;;;12.26;54.22656;102176.4;;;;-83
2022/05/15 05:23:56;;;;;;;;;;;;;;;12.36;54.14941;102182.8;;;;-83
2022/05/15 05:26:22;;;;;;;11.5;2.6;;;;;;;;;;;;;-82
2022/05/15 05:28:56;;;;;;;;;;;;;;;12.58;54.88281;102177.4;;;;-83
2022/05/15 05:33:57;;;;;;;;;;;;;;;13.04;53.20215;102179.9;;;;-83
2022/05/15 05:38:58;;;;;;;;;;;;;;;13.67;52.09961;102175.2;;;;-84
2022/05/15 05:43:58;;;;;;;;;;;;;;;14.32;50.99414;102173.1;;;;-81
2022/05/15 05:48:57;;;;;;;;;;;;;;;14.9;50.23926;102169.2;;;;-82
2022/05/15 05:53:57;;;;;;;;;;;;;;;15.42;49.59766;102164.7;;;;-83
2022/05/15 05:56:22;;;;;;;10.5;2.6;;;;;;;;;;;;;-82
2022/05/15 05:58:56;;;;;;;;;;;;;;;15.89;49.42383;102158.7;;;;-82
2022/05/15 06:08:56;;;;;;;;;;;;;;;16.77;48.10742;102160.6;;;;-81
2022/05/15 06:13:56;;;;;;;;;;;;;;;17.19;47.65332;102163.6;;;;-83
2022/05/15 06:18:59;;;;;;;;;;;;;;;17.56;47.22852;102157.8;;;;-82
2022/05/15 06:23:59;;;;;;;;;;;;;;;17.95;46.55371;102157.9;;;;-81
2022/05/15 06:26:23;;;;;;;11.8;2.8;;;;;;;;;;;;;-82
2022/05/15 06:28:56;;;;;;;;;;;;;;;18.32;46.16113;102152.7;;;;-83
2022/05/15 06:33:57;;;;;;;;;;;;;;;18.71;45.72266;102154;;;;-81
2022/05/15 06:38:57;;;;;;;;;;;;;;;19.04;45.26758;102150.1;;;;-83
2022/05/15 06:43:57;;;;;;;;;;;;;;;19.4;44.72168;102153;;;;-82
2022/05/15 06:48:58;;;;;;;;;;;;;;;19.75;44.34473;102150.9;;;;-83
2022/05/15 06:53:57;;;;;;;;;;;;;;;19.98;44.14063;102147.2;;;;-83
2022/05/15 06:58:57;;;;;;;;;;;;;;;20.23;43.86719;102149.2;;;;-81
2022/05/15 07:03:57;;;;;;;;;;;;;;;20.49;43.69922;102146;;;;-83
2022/05/15 07:08:57;;;;;;;;;;;;;;;20.77;43.30273;102143.6;;;;-82
2022/05/15 07:13:57;;;;;;;;;;;;;;;21.02;42.99414;102144.3;;;;-82
2022/05/15 07:18:56;;;;;;;;;;;;;;;21.24;42.79785;102143.3;;;;-82
2022/05/15 07:23:56;;;;;;;;;;;;;;;21.54;42.45898;102148.2;;;;-82
2022/05/15 07:26:31;;;;;;;11.3;2.9;;;;;;;;;;;;;-83
2022/05/15 07:28:56;;;;;;;;;;;;;;;21.83;42.0625;102147.7;;;;-83
2022/05/15 07:33:57;;;;;;;;;;;;;;;22.02;41.81641;102146.6;;;;-82
2022/05/15 07:38:57;;;;;;;;;;;;;;;22.25;41.73438;102146.6;;;;-82
2022/05/15 07:44:04;;;;;;;;;;;;;;;22.53;41.53027;102146.6;;;;-83
2022/05/15 07:48:58;;;;;;;;;;;;;;;22.76;41.30957;102147.3;;;;-82
2022/05/15 07:53:57;;;;;;;;;;;;;;;23.03;41.03516;102141.6;;;;-83
2022/05/15 07:56:32;;;;;;;8.8;2.7;;;;;;;;;;;;;-84
2022/05/15 07:59:00;;;;;;;;;;;;;;;23.24;40.79004;102138.5;;;;-83
2022/05/15 08:03:57;;;;;;;;;;;;;;;23.45;40.63574;102135.2;;;;-84
2022/05/15 08:09:00;;;;;;;;;;;;;;;23.64;40.49121;102135.5;;;;-83
2022/05/15 08:14:00;;;;;;;;;;;;;;;23.84;40.37109;102138.3;;;;-82
2022/05/15 08:23:58;;;;;;;;;;;;;;;24.22;39.9541;102134.5;;;;-82
2022/05/15 08:26:36;;;;;;;9.4;2.9;;;;;;;;;;;;;-84
2022/05/15 08:28:59;;;;;;;;;;;;;;;24.41;39.71777;102135.2;;;;-84
2022/05/15 08:33:57;;;;;;;;;;;;;;;24.5;39.5293;102130.5;;;;-84
2022/05/15 08:38:57;;;;;;;;;;;;;;;24.6;39.56152;102119.5;;;;-82
2022/05/15 08:44:02;;;;;;;;;;;;;;;24.84;39.30371;102116.2;;;;-85
2022/05/15 08:49:02;;;;;;;;;;;;;;;25.09;39.12988;102108.7;;;;-85
2022/05/15 08:53:56;;;;;;;;;;;;;;;25.35;38.75879;102110.4;;;;-83
2022/05/15 08:56:43;;;;;;;12.6;3.2;;;;;;;;;;;;;-83
2022/05/15 08:59:00;;;;;;;;;;;;;;;25.54;38.54297;102107.2;;;;-83
2022/05/15 09:03:59;;;;;;;;;;;;;;;25.76;38.35254;102101.6;;;;-83
2022/05/15 09:09:11;;;;;;;;;;;;;;;25.94;38.12402;102104.3;;;;-82
2022/05/15 09:13:59;;;;;;;;;;;;;;;26.14;37.85156;102112.2;;;;-85
2022/05/15 09:19:10;;;;;;;;;;;;;;;26.26;37.57129;102101.5;;;;-84
2022/05/15 09:23:58;;;;;;;;;;;;;;;26.5;37.5332;102108.5;;;;-85
2022/05/15 09:26:49;;;;;;;11;3.4;;;;;;;;;;;;;-85
2022/05/15 09:28:58;;;;;;;;;;;;;;;26.76;37.38086;102107.2;;;;-85
2022/05/15 09:34:02;;;;;;;;;;;;;;;27.06;37.10352;102098.5;;;;-83
2022/05/15 09:39:07;;;;;;;;;;;;;;;27.34;36.7998;102101.9;;;;-85
2022/05/15 09:43:59;;;;;;;;;;;;;;;27.5;36.26563;102098;;;;-84
2022/05/15 09:48:59;;;;;;;;;;;;;;;27.62;35.83203;102086;;;;-84
2022/05/15 09:54:00;;;;;;;;;;;;;;;27.76;36.20508;102080.1;;;;-85
2022/05/15 09:56:46;;;;;;;11.2;2.9;;;;;;;;;;;;;-83
2022/05/15 09:59:02;;;;;;;;;;;;;;;27.97;36.08105;102085.4;;;;-84
2022/05/15 10:04:01;;;;;;;;;;;;;;;28.16;35.68848;102074.6;;;;-84
2022/05/15 10:09:22;;;;;;;;;;;;;;;28.38;35.53027;102071.1;;;;-83
2022/05/15 10:13:58;;;;;;;;;;;;;;;28.58;35.19531;102062.7;;;;-84
2022/05/15 10:18:58;;;;;;;;;;;;;;;28.79;34.99023;102078.2;;;;-83
2022/05/15 10:23:59;;;;;;;;;;;;;;;29.01;34.65625;102074.2;;;;-85
2022/05/15 10:26:59;;;;;;;14.1;3.2;;;;;;;;;;;;;-84
2022/05/15 10:29:01;;;;;;;;;;;;;;;29.21;34.57813;102058;;;;-85
2022/05/15 10:33:59;;;;;;;;;;;;;;;29.49;34.33105;102059.6;;;;-82
2022/05/15 10:39:06;;;;;;;;;;;;;;;29.72;33.78613;102060;;;;-85
2022/05/15 10:44:09;;;;;;;;;;;;;;;29.93;33.60156;102049.4;;;;-84
2022/05/15 10:49:05;;;;;;;;;;;;;;;30.14;33.23047;102048.8;;;;-84
2022/05/15 10:57:29;;;;;;;15.6;3.3;;;;;;;;;;;;;-84
2022/05/15 10:59:00;;;;;;;;;;;;;;;30.6;32.9707;102030.3;;;;-86
2022/05/15 11:04:02;;;;;;;;;;;;;;;30.83;32.41211;102033.4;;;;-83
2022/05/15 11:08:59;;;;;;;;;;;;;;;30.97;31.94043;102033;;;;-85
2022/05/15 11:13:58;;;;;;;;;;;;;;;31.07;32.27637;102026.2;;;;-81
2022/05/15 11:19:06;;;;;;;;;;;;;;;29.84;29.99609;102012.5;;;;-82
2022/05/15 11:24:01;;;;;;;;;;;;;;;28.62;31.13184;102011.5;;;;-77
2022/05/15 11:27:02;;;;;;;11.7;3.5;;;;;;;;;;;;;-77
2022/05/15 11:28:59;;;;;;;;;;;;;;;27.87;30.74219;102010.5;;;;-76
2022/05/15 11:33:58;;;;;;;;;;;;;;;27.74;31.39746;102005.7;;;;-78
2022/05/15 11:39:03;;;;;;;;;;;;;;;27.33;31.60254;101998.7;;;;-81
2022/05/15 11:44:09;;;;;;;;;;;;;;;27.23;31.63086;101997.7;;;;-82
2022/05/15 11:49:01;;;;;;;;;;;;;;;27.39;30.98926;101991.5;;;;-80
2022/05/15 11:53:58;;;;;;;;;;;;;;;27.48;30.93652;101987.2;;;;-78
2022/05/15 11:57:05;;;;;;;11.5;2.8;;;;;;;;;;;;;-81
2022/05/15 11:59:01;;;;;;;;;;;;;;;27.44;30.35059;101982.8;;;;-82
2022/05/15 12:04:01;;;;;;;;;;;;;;;27.52;30.34375;101974.1;;;;-79
2022/05/15 12:09:10;;;;;;;;;;;;;;;27.59;29.37988;101960.8;;;;-78
2022/05/15 12:13:59;;;;;;;;;;;;;;;27.22;29.87012;101963.1;;;;-80
2022/05/15 12:19:01;;;;;;;;;;;;;;;27.4;29.84668;101965;;;;-79
2022/05/15 12:27:14;;;;;;;10.4;2.7;;;;;;;;;;;;;-75
2022/05/15 12:29:02;;;;;;;;;;;;;;;27.22;29.78809;101957;;;;-76
2022/05/15 12:33:56;;;;;;;;;;;;;;;27.43;29.00781;101953.3;;;;-74
2022/05/15 12:38:58;;;;;;;;;;;;;;;27.34;29.43457;101948.2;;;;-77
2022/05/15 12:43:57;;;;;;;;;;;;;;;27.43;29.19434;101935.9;;;;-75
2022/05/15 12:48:58;;;;;;;;;;;;;;;27.91;28.63086;101928.6;;;;-79
2022/05/15 12:54:15;;;;;;;;;;;;;;;27.94;28.4209;101930.6;;;;-76
2022/05/15 12:57:14;;;;;;;10.9;2.9;;;;;;;;;;;;;-78
2022/05/15 12:58:58;;;;;;;;;;;;;;;28.14;27.89551;101929.2;;;;-84
2022/05/15 13:03:58;;;;;;;;;;;;;;;28.16;27.85059;101916.4;;;;-81
2022/05/15 13:08:59;;;;;;;;;;;;;;;28.19;28.26172;101911.8;;;;-80
2022/05/15 13:13:58;;;;;;;;;;;;;;;28.17;27.73438;101909.7;;;;-81
2022/05/15 13:18:57;;;;;;;;;;;;;;;28.39;26.90527;101898.6;;;;-78
2022/05/15 13:23:57;;;;;;;;;;;;;;;28.12;26.91211;101895.1;;;;-79
2022/05/15 13:27:17;;;;;;;9.8;2.5;;;;;;;;;;;;;-79
2022/05/15 13:28:58;;;;;;;;;;;;;;;27.76;26.59863;101895.8;;;;-78
2022/05/15 13:33:56;;;;;;;;;;;;;;;27.58;27.21875;101886.1;;;;-79
2022/05/15 13:44:00;;;;;;;;;;;;;;;28.1;27.03906;101877.9;;;;-78
2022/05/15 13:49:03;;;;;;;;;;;;;;;28.18;26.54102;101877.2;;;;-78
2022/05/15 13:54:06;;;;;;;;;;;;;;;27.88;26.66406;101870.2;;;;-75
2022/05/15 13:57:21;;;;;;;9.6;2.5;;;;;;;;;;;;;-76
2022/05/15 13:58:58;;;;;;;;;;;;;;;27.57;26.85645;101860.6;;;;-76
2022/05/15 14:03:57;;;;;;;;;;;;;;;27.4;27.45313;101849.3;;;;-74
2022/05/15 14:09:08;;;;;;;;;;;;;;;27.35;27.57813;101846.1;;;;-77
2022/05/15 14:13:57;;;;;;;;;;;;;;;27.66;26.9668;101849.7;;;;-76
2022/05/15 14:18:56;;;;;;;;;;;;;;;27.3;27.1084;101847.1;;;;-77
2022/05/15 14:23:56;;;;;;;;;;;;;;;27.34;26.70313;101847.5;;;;-77
2022/05/15 14:27:26;;;;;;;13.1;2.5;;;;;;;;;;;;;-74
2022/05/15 14:28:56;;;;;;;;;;;;;;;27.3;26.77051;101838.8;;;;-73
2022/05/15 14:33:56;;;;;;;;;;;;;;;27.26;26.75684;101826.6;;;;-76
2022/05/15 14:38:56;;;;;;;;;;;;;;;27.57;26.5293;101830.9;;;;-74
2022/05/15 14:43:56;;;;;;;;;;;;;;;27.55;26.60938;101823.8;;;;-76
2022/05/15 14:48:57;;;;;;;;;;;;;;;27.16;26.90234;101813.3;;;;-76
2022/05/15 14:53:58;;;;;;;;;;;;;;;27.19;27.26465;101804;;;;-78
2022/05/15 14:57:30;;;;;;;10;2.7;;;;;;;;;;;;;-76
2022/05/15 14:59:00;;;;;;;;;;;;;;;27.06;27.51465;101794.1;;;;-75
2022/05/15 15:03:56;;;;;;;;;;;;;;;27.04;27.60645;101783.5;;;;-75
2022/05/15 15:08:56;;;;;;;;;;;;;;;27.21;27.60547;101789.8;;;;-75
2022/05/15 15:13:57;;;;;;;;;;;;;;;27.28;27.70313;101787.9;;;;-76
2022/05/15 15:18:56;;;;;;;;;;;;;;;27.26;27.99316;101783.7;;;;-75
2022/05/15 15:23:57;;;;;;;;;;;;;;;26.9;27.83105;101777;;;;-81
2022/05/15 15:27:36;;;;;;;9;2.8;;;;;;;;;;;;;-78
2022/05/15 15:28:57;;;;;;;;;;;;;;;26.6;28.25586;101777.1;;;;-81
2022/05/15 15:33:58;;;;;;;;;;;;;;;26.19;28.68359;101756.6;;;;-80
2022/05/15 15:38:57;;;;;;;;;;;;;;;26.28;28.91113;101755.2;;;;-81
2022/05/15 15:43:56;;;;;;;;;;;;;;;26.26;28.66504;101746.3;;;;-79
2022/05/15 15:48:56;;;;;;;;;;;;;;;26.23;29.10547;101739.6;;;;-78
2022/05/15 15:53:58;;;;;;;;;;;;;;;26.32;28.72656;101728.2;;;;-77
2022/05/15 15:57:38;;;;;;;12.1;2.8;;;;;;;;;;;;;-77
2022/05/15 15:58:56;;;;;;;;;;;;;;;26.13;29.09961;101726.8;;;;-79
2022/05/15 16:04:00;;;;;;;;;;;;;;;26.19;29.12695;101720.7;;;;-77
2022/05/15 16:08:56;;;;;;;;;;;;;;;25.92;29.33008;101708.4;;;;-80
2022/05/15 16:13:56;;;;;;;;;;;;;;;26.08;29.17676;101702.6;;;;-79
2022/05/15 16:18:56;;;;;;;;;;;;;;;26.01;28.88086;101704.8;;;;-78
2022/05/15 16:23:57;;;;;;;;;;;;;;;25.85;28.87207;101695.3;;;;-78
2022/05/15 16:27:42;;;;;;;8.1;2.6;;;;;;;;;;;;;-78
2022/05/15 16:28:58;;;;;;;;;;;;;;;25.81;28.96191;101683.7;;;;-78
2022/05/15 16:33:58;;;;;;;;;;;;;;;25.75;29.26074;101681.1;;;;-79
2022/05/15 16:38:56;;;;;;;;;;;;;;;25.91;29.43359;101674.1;;;;-77
2022/05/15 16:43:57;;;;;;;;;;;;;;;25.84;29.82422;101675.3;;;;-76
2022/05/15 16:48:59;;;;;;;;;;;;;;;26.22;29.54785;101673.4;;;;-84
2022/05/15 16:54:02;;;;;;;;;;;;;;;26.51;29.25098;101673.6;;;;-87
2022/05/15 16:57:46;;;;;;;7.5;2.5;;;;;;;;;;;;;-85
2022/05/15 16:58:57;;;;;;;;;;;;;;;26.51;29.29785;101670.9;;;;-84
2022/05/15 17:03:57;;;;;;;;;;;;;;;26.44;29.50293;101670.1;;;;-86
2022/05/15 17:09:01;;;;;;;;;;;;;;;26.3;29.70313;101663.9;;;;-86
2022/05/15 17:13:59;;;;;;;;;;;;;;;26.17;29.75293;101661.5;;;;-82
2022/05/15 17:19:00;;;;;;;;;;;;;;;26.06;29.95508;101657.3;;;;-86
2022/05/15 17:23:59;;;;;;;;;;;;;;;25.95;30.05273;101653.8;;;;-87
2022/05/15 17:27:54;;;;;;;9.4;2.4;;;;;;;;;;;;;-83
2022/05/15 17:39:01;;;;;;;;;;;;;;;25.75;30.8877;101638.7;;;;-85
2022/05/15 17:44:01;;;;;;;;;;;;;;;25.66;31.12598;101632.4;;;;-84
2022/05/15 17:48:56;;;;;;;;;;;;;;;25.54;31.34961;101626.7;;;;-85
2022/05/15 17:54:00;;;;;;;;;;;;;;;25.41;31.60742;101621.1;;;;-84
2022/05/15 17:58:02;;;;;;;6.3;2.5;;;;;;;;;;;;;-84
2022/05/15 17:58:57;;;;;;;;;;;;;;;25.27;31.89844;101613.6;;;;-84
2022/05/15 18:03:56;;;;;;;;;;;;;;;25.13;32.09766;101606.6;;;;-82
2022/05/15 18:08:58;;;;;;;;;;;;;;;24.98;32.26172;101601.3;;;;-83
2022/05/15 18:14:01;;;;;;;;;;;;;;;24.83;32.28613;101596.2;;;;-84
2022/05/15 18:18:57;;;;;;;;;;;;;;;24.67;32.36719;101593.6;;;;-83
2022/05/15 18:23:57;;;;;;;;;;;;;;;24.53;32.47266;101597.3;;;;-85
2022/05/15 18:27:57;;;;;;;7.1;2.6;;;;;;;;;;;;;-82
2022/05/15 18:28:57;;;;;;;;;;;;;;;24.35;32.86523;101600.9;;;;-84
2022/05/15 18:33:58;;;;;;;;;;;;;;;24.2;32.90039;101597.5;;;;-82
2022/05/15 18:38:57;;;;;;;;;;;;;;;24.02;33.29102;101594.4;;;;-84
2022/05/15 18:43:57;;;;;;;;;;;;;;;23.81;33.64648;101591.9;;;;-83
2022/05/15 18:48:57;;;;;;;;;;;;;;;23.61;33.79297;101596.1;;;;-83
2022/05/15 18:58:05;;;;;;;5.8;2.5;;;;;;;;;;;;;-84
2022/05/15 18:58:57;;;;;;;;;;;;;;;23.2;34.4668;101599.8;;;;-83
2022/05/15 19:03:58;;;;;;;;;;;;;;;23;34.60059;101605;;;;-83
2022/05/15 19:08:56;;;;;;;;;;;;;;;22.82;34.9209;101604;;;;-84
2022/05/15 19:13:56;;;;;;;;;;;;;;;22.6;35.28516;101601.2;;;;-83
2022/05/15 19:18:57;;;;;;;;;;;;;;;22.39;35.75195;101600.6;;;;-84
2022/05/15 19:23:56;;;;;;;;;;;;;;;22.22;35.84082;101606.5;;;;-83
2022/05/15 19:28:06;;;;;;;7.4;2.6;;;;;;;;;;;;;-82
2022/05/15 19:28:56;;;;;;;;;;;;;;;22.02;36.63086;101611.3;;;;-83
2022/05/15 19:33:56;;;;;;;;;;;;;;;21.88;36.86035;101614.8;;;;-82
2022/05/15 19:38:58;;;;;;;;;;;;;;;21.69;37.69531;101612.3;;;;-82
2022/05/15 19:43:56;;;;;;;;;;;;;;;21.47;38.66504;101612;;;;-82
2022/05/15 19:48:59;;;;;;;;;;;;;;;21.28;39.87598;101614.4;;;;-84
2022/05/15 19:54:02;;;;;;;;;;;;;;;21.12;40.36719;101620.9;;;;-82
2022/05/15 19:58:30;;;;;;;9.5;2.8;;;;;;;;;;;;;-82
2022/05/15 19:58:56;;;;;;;;;;;;;;;20.94;40.44238;101616.6;;;;-84
2022/05/15 20:04:08;;;;;;;;;;;;;;;20.76;41.18262;101618.9;;;;-83
2022/05/15 20:13:56;;;;;;;;;;;;;;;20.43;42.75391;101638.3;;;;-82
2022/05/15 20:18:56;;;;;;;;;;;;;;;20.29;42.77441;101634.8;;;;-82
2022/05/15 20:23:56;;;;;;;;;;;;;;;20.14;43.71094;101646;;;;-82
2022/05/15 20:28:09;;;;;;;7.7;2.4;;;;;;;;;;;;;-82
2022/05/15 20:28:56;;;;;;;;;;;;;;;20.05;43.73535;101654.4;;;;-81
2022/05/15 20:34:05;;;;;;;;;;;;;;;19.91;44.19043;101655.4;;;;-83
2022/05/15 20:38:58;;;;;;;;;;;;;;;19.78;45.05664;101661.7;;;;-83
2022/05/15 20:43:57;;;;;;;;;;;;;;;19.67;45.2627;101663;;;;-82
2022/05/15 20:48:56;;;;;;;;;;;;;;;19.58;44.99023;101664.6;;;;-85
2022/05/15 20:53:58;;;;;;;;;;;;;;;19.48;45.18555;101667.2;;;;-82
2022/05/15 20:58:14;;;;;;;7.2;2.2;;;;;;;;;;;;;-82
2022/05/15 20:58:56;;;;;;;;;;;;;;;19.35;46.13086;101674.3;;;;-84
2022/05/15 21:04:02;;;;;;;;;;;;;;;19.22;46.40332;101671.2;;;;-81
2022/05/15 21:08:57;;;;;;;;;;;;;;;19.1;46.62891;101666.9;;;;-81
2022/05/15 21:13:56;;;;;;;;;;;;;;;19;46.91504;101657.5;;;;-82
2022/05/15 21:18:56;;;;;;;;;;;;;;;18.9;47.3252;101651.8;;;;-83
2022/05/15 21:23:57;;;;;;;;;;;;;;;18.8;48.14648;101647;;;;-82
2022/05/15 21:28:19;;;;;;;8.2;2.5;;;;;;;;;;;;;-82
2022/05/15 21:28:56;;;;;;;;;;;;;;;18.68;48.33789;101653.9;;;;-85
2022/05/15 21:33:56;;;;;;;;;;;;;;;18.58;48.69141;101650.7;;;;-82
2022/05/15 21:43:56;;;;;;;;;;;;;;;18.45;49.33691;101637.8;;;;-84
2022/05/15 21:48:58;;;;;;;;;;;;;;;18.36;49.76953;101635.5;;;;-82
2022/05/15 21:53:56;;;;;;;;;;;;;;;18.31;49.76367;101648.2;;;;-83
2022/05/15 21:58:17;;;;;;;7.3;2.4;;;;;;;;;;;;;-83
2022/05/15 22:03:56;;;;;;;;;;;;;;;18.24;50.04004;101637.9;;;;-82
2022/05/15 22:08:56;;;;;;;;;;;;;;;18.19;49.95508;101637.1;;;;-84
2022/05/15 22:13:56;;;;;;;;;;;;;;;18.14;49.7002;101631.2;;;;-82
2022/05/15 22:18:56;;;;;;;;;;;;;;;18.1;50.05957;101621.8;;;;-83
2022/05/15 22:23:58;;;;;;;;;;;;;;;18.05;50.16699;101619.1;;;;-83
2022/05/15 22:28:20;;;;;;;9.4;2.5;;;;;;;;;;;;;-83
2022/05/15 22:28:56;;;;;;;;;;;;;;;17.98;50.03418;101615.8;;;;-82
2022/05/15 22:33:57;;;;;;;;;;;;;;;17.92;50.35645;101611.3;;;;-80
2022/05/15 22:38:57;;;;;;;;;;;;;;;17.86;50.07617;101604;;;;-82
2022/05/15 22:43:58;;;;;;;;;;;;;;;17.78;49.91992;101594.7;;;;-83
2022/05/15 22:48:56;;;;;;;;;;;;;;;17.71;49.62793;101582.7;;;;-83
2022/05/15 22:53:57;;;;;;;;;;;;;;;17.6;49.93457;101571.4;;;;-83
2022/05/15 22:58:21;;;;;;;7.9;2.4;;;;;;;;;;;;;-82
2022/05/15 22:58:56;;;;;;;;;;;;;;;17.51;50.38867;101575;;;;-82
2022/05/15 23:03:56;;;;;;;;;;;;;;;17.44;50.27832;101570.3;;;;-82
2022/05/15 23:08:56;;;;;;;;;;;;;;;17.37;50.54199;101560.4;;;;-82
2022/05/15 23:13:56;;;;;;;;;;;;;;;17.27;50.05566;101557.2;;;;-82
2022/05/15 23:18:57;;;;;;;;;;;;;;;17.21;50.31055;101541.9;;;;-82
2022/05/15 23:23:56;;;;;;;;;;;;;;;17.15;50.16699;101537.3;;;;-83
2022/05/15 23:28:24;;;;;;;7.2;2.2;;;;;;;;;;;;;-82
2022/05/15 23:28:57;;;;;;;;;;;;;;;17.09;49.87598;101543.5;;;;-83
2022/05/15 23:34:04;;;;;;;;;;;;;;;17.04;49.89258;101541.5;;;;-82
2022/05/15 23:39:04;;;;;;;;;;;;;;;16.97;49.9873;101533.3;;;;-84
2022/05/15 23:43:56;;;;;;;;;;;;;;;16.94;50.02832;101530.3;;;;-81
2022/05/15 23:48:58;;;;;;;;;;;;;;;16.89;49.89941;101528.7;;;;-82
2022/05/15 23:53:57;;;;;;;;;;;;;;;16.83;49.62012;101532.2;;;;-81
2022/05/15 23:58:27;;;;;;;8.4;2.3;;;;;;;;;;;;;-81
2022/05/15 23:58:57;;;;;;;;;;;;;;;16.77;49.71484;101538;;;;-84
